AYN7151 UAAA-UASS
Flight info
| Callsign | AYN7151 |
|---|---|
| Flight time | 1h 12m |
| Altitude | 33000 |
| Route | DESOK1B DESOK DCT AGZ/K0791F320 DCT LUNOV LUNOV1H |
| Aircraft | A320/M-SDE3FGHIRWY/LB1 |
Departure
| Time | 2026-04-27 15:16 |
|---|---|
| Airport | Almaty International Airport (UAAA) |
Arrival
| Time | 2026-04-27 16:28 |
|---|---|
| Airport | Semei International Airport (UASS) |
| Time | Latitude | Longitude | Altitude | Speed | Heading |
|---|---|---|---|---|---|
| 2026-04-27 15:11 | 43.34498 | 77.01522 | 2222 ft | 0 kts | 157° |
| 2026-04-27 15:11 | 43.34492 | 77.01525 | 2224 ft | 2 kts | 157° |
| 2026-04-27 15:11 | 43.34477 | 77.01534 | 2224 ft | 3 kts | 157° |
| 2026-04-27 15:12 | 43.34455 | 77.01547 | 2223 ft | 4 kts | 156° |
| 2026-04-27 15:12 | 43.34424 | 77.01566 | 2224 ft | 6 kts | 156° |
| 2026-04-27 15:12 | 43.34384 | 77.01590 | 2224 ft | 7 kts | 156° |
| 2026-04-27 15:12 | 43.34338 | 77.01618 | 2226 ft | 8 kts | 156° |
| 2026-04-27 15:13 | 43.34287 | 77.01649 | 2226 ft | 8 kts | 155° |
| 2026-04-27 15:13 | 43.34260 | 77.01669 | 2228 ft | 0 kts | 155° |
| 2026-04-27 15:13 | 43.34255 | 77.01672 | 2227 ft | 6 kts | 155° |
| 2026-04-27 15:14 | 43.34202 | 77.01705 | 2231 ft | 8 kts | 155° |
| 2026-04-27 15:14 | 43.34165 | 77.01747 | 2232 ft | 7 kts | 118° |
| 2026-04-27 15:14 | 43.34170 | 77.01814 | 2232 ft | 8 kts | 68° |
| 2026-04-27 15:14 | 43.34202 | 77.01886 | 2232 ft | 10 kts | 56° |
| 2026-04-27 15:15 | 43.34254 | 77.01993 | 2232 ft | 30 kts | 56° |
| 2026-04-27 15:15 | 43.34497 | 77.02488 | 2235 ft | 92 kts | 56° |
| 2026-04-27 15:15 | 43.34955 | 77.03411 | 2233 ft | 139 kts | 56° |
| 2026-04-27 15:15 | 43.35570 | 77.04662 | 2275 ft | 173 kts | 56° |
| 2026-04-27 15:16 | 43.36229 | 77.06033 | 2878 ft | 170 kts | 56° |
| 2026-04-27 15:16 | 43.36874 | 77.07366 | 3570 ft | 167 kts | 54° |
| 2026-04-27 15:16 | 43.37526 | 77.08701 | 4189 ft | 171 kts | 54° |
| 2026-04-27 15:16 | 43.38250 | 77.10091 | 4493 ft | 189 kts | 52° |
| 2026-04-27 15:17 | 43.39077 | 77.11632 | 4709 ft | 212 kts | 52° |
| 2026-04-27 15:17 | 43.39983 | 77.13319 | 4991 ft | 231 kts | 52° |
| 2026-04-27 15:17 | 43.40970 | 77.15173 | 5413 ft | 248 kts | 53° |
| 2026-04-27 15:17 | 43.42009 | 77.17197 | 5889 ft | 267 kts | 55° |
| 2026-04-27 15:18 | 43.43078 | 77.19345 | 6615 ft | 275 kts | 56° |
| 2026-04-27 15:18 | 43.44156 | 77.21549 | 7369 ft | 280 kts | 56° |
| 2026-04-27 15:18 | 43.45254 | 77.23802 | 8135 ft | 285 kts | 56° |
| 2026-04-27 15:18 | 43.46368 | 77.26089 | 8925 ft | 289 kts | 57° |
| 2026-04-27 15:19 | 43.47500 | 77.28407 | 9710 ft | 293 kts | 57° |
| 2026-04-27 15:19 | 43.48626 | 77.30732 | 10356 ft | 301 kts | 57° |
| 2026-04-27 15:19 | 43.49827 | 77.33234 | 10563 ft | 324 kts | 57° |
| 2026-04-27 15:19 | 43.51104 | 77.35911 | 10878 ft | 341 kts | 57° |
| 2026-04-27 15:20 | 43.52419 | 77.38671 | 11469 ft | 347 kts | 57° |
| 2026-04-27 15:20 | 43.53753 | 77.41474 | 12108 ft | 351 kts | 57° |
| 2026-04-27 15:20 | 43.55099 | 77.44307 | 12762 ft | 355 kts | 57° |
| 2026-04-27 15:20 | 43.55999 | 77.46197 | 13193 ft | 358 kts | 57° |
| 2026-04-27 15:21 | 43.57831 | 77.50043 | 14017 ft | 363 kts | 57° |
| 2026-04-27 15:21 | 43.59232 | 77.52974 | 14574 ft | 367 kts | 56° |
| 2026-04-27 15:21 | 43.60658 | 77.55917 | 15140 ft | 371 kts | 56° |
| 2026-04-27 15:21 | 43.61619 | 77.57887 | 15488 ft | 373 kts | 56° |
| 2026-04-27 15:22 | 43.63576 | 77.61883 | 16212 ft | 378 kts | 55° |
| 2026-04-27 15:22 | 43.64555 | 77.63883 | 16575 ft | 381 kts | 56° |
| 2026-04-27 15:22 | 43.66530 | 77.67933 | 17276 ft | 386 kts | 56° |
| 2026-04-27 15:22 | 43.67550 | 77.70032 | 17639 ft | 389 kts | 55° |
| 2026-04-27 15:23 | 43.69063 | 77.73158 | 18171 ft | 393 kts | 56° |
| 2026-04-27 15:23 | 43.70575 | 77.76287 | 18648 ft | 398 kts | 56° |
| 2026-04-27 15:23 | 43.72129 | 77.79502 | 19126 ft | 401 kts | 56° |
| 2026-04-27 15:23 | 43.73691 | 77.82743 | 19623 ft | 405 kts | 56° |
| 2026-04-27 15:24 | 43.75242 | 77.85961 | 20109 ft | 408 kts | 56° |
| 2026-04-27 15:24 | 43.76967 | 77.89091 | 20572 ft | 411 kts | 45° |
| 2026-04-27 15:24 | 43.79130 | 77.91679 | 21025 ft | 412 kts | 32° |
| 2026-04-27 15:24 | 43.81638 | 77.93578 | 21468 ft | 412 kts | 19° |
| 2026-04-27 15:25 | 43.84388 | 77.94707 | 21902 ft | 412 kts | 7° |
| 2026-04-27 15:25 | 43.87243 | 77.95019 | 22342 ft | 410 kts | 355° |
| 2026-04-27 15:25 | 43.90106 | 77.94831 | 22790 ft | 413 kts | 354° |
| 2026-04-27 15:25 | 43.92987 | 77.94632 | 23239 ft | 416 kts | 353° |
| 2026-04-27 15:26 | 43.95854 | 77.94433 | 23660 ft | 419 kts | 353° |
| 2026-04-27 15:26 | 43.98777 | 77.94231 | 24037 ft | 422 kts | 353° |
| 2026-04-27 15:26 | 44.01726 | 77.94028 | 24417 ft | 425 kts | 353° |
| 2026-04-27 15:26 | 44.04690 | 77.93821 | 24803 ft | 427 kts | 353° |
| 2026-04-27 15:27 | 44.07674 | 77.93612 | 25179 ft | 430 kts | 353° |
| 2026-04-27 15:27 | 44.10678 | 77.93403 | 25561 ft | 432 kts | 353° |
| 2026-04-27 15:27 | 44.13651 | 77.93195 | 25929 ft | 434 kts | 353° |
| 2026-04-27 15:27 | 44.16682 | 77.92983 | 26302 ft | 437 kts | 353° |
| 2026-04-27 15:28 | 44.19739 | 77.92776 | 26676 ft | 439 kts | 353° |
| 2026-04-27 15:28 | 44.22803 | 77.92572 | 27039 ft | 441 kts | 353° |
| 2026-04-27 15:28 | 44.25906 | 77.92712 | 27395 ft | 449 kts | 3° |
| 2026-04-27 15:28 | 44.28989 | 77.93563 | 27747 ft | 456 kts | 13° |
| 2026-04-27 15:29 | 44.31977 | 77.95132 | 28103 ft | 462 kts | 21° |
| 2026-04-27 15:29 | 44.34908 | 77.97028 | 28453 ft | 465 kts | 21° |
| 2026-04-27 15:29 | 44.37816 | 77.98907 | 28800 ft | 467 kts | 21° |
| 2026-04-27 15:29 | 44.40785 | 78.00824 | 29159 ft | 470 kts | 21° |
| 2026-04-27 15:30 | 44.43776 | 78.02755 | 29502 ft | 472 kts | 21° |
| 2026-04-27 15:30 | 44.46769 | 78.04688 | 29843 ft | 475 kts | 21° |
| 2026-04-27 15:30 | 44.49784 | 78.06634 | 30164 ft | 478 kts | 21° |
| 2026-04-27 15:30 | 44.52816 | 78.08594 | 30498 ft | 479 kts | 20° |
| 2026-04-27 15:31 | 44.55836 | 78.10548 | 30917 ft | 478 kts | 20° |
| 2026-04-27 15:31 | 44.58826 | 78.12486 | 31317 ft | 477 kts | 20° |
| 2026-04-27 15:31 | 44.61832 | 78.14442 | 31713 ft | 477 kts | 20° |
| 2026-04-27 15:31 | 44.64848 | 78.16410 | 32127 ft | 476 kts | 20° |
| 2026-04-27 15:32 | 44.67863 | 78.18380 | 32520 ft | 476 kts | 20° |
| 2026-04-27 15:32 | 44.70871 | 78.20344 | 32913 ft | 476 kts | 20° |
| 2026-04-27 15:32 | 44.73875 | 78.22307 | 33064 ft | 476 kts | 20° |
| 2026-04-27 15:32 | 44.76837 | 78.24247 | 33090 ft | 474 kts | 20° |
| 2026-04-27 15:33 | 44.82814 | 78.28173 | 33084 ft | 473 kts | 20° |
| 2026-04-27 15:33 | 44.88780 | 78.32099 | 33085 ft | 473 kts | 20° |
| 2026-04-27 15:34 | 44.94754 | 78.36030 | 33088 ft | 474 kts | 20° |
| 2026-04-27 15:34 | 45.00700 | 78.39955 | 33086 ft | 474 kts | 20° |
| 2026-04-27 15:35 | 45.06692 | 78.43917 | 33091 ft | 474 kts | 19° |
| 2026-04-27 15:35 | 45.12679 | 78.47879 | 33098 ft | 475 kts | 19° |
| 2026-04-27 15:36 | 45.18640 | 78.51838 | 33097 ft | 475 kts | 19° |
| 2026-04-27 15:36 | 45.24632 | 78.55821 | 33093 ft | 475 kts | 19° |
| 2026-04-27 15:37 | 45.30616 | 78.59812 | 33091 ft | 475 kts | 19° |
| 2026-04-27 15:37 | 45.36601 | 78.63823 | 33088 ft | 475 kts | 20° |
| 2026-04-27 15:38 | 45.42588 | 78.67849 | 33087 ft | 475 kts | 19° |
| 2026-04-27 15:38 | 45.48530 | 78.71846 | 33090 ft | 475 kts | 19° |
| 2026-04-27 15:39 | 45.54514 | 78.75876 | 33091 ft | 475 kts | 19° |
| 2026-04-27 15:39 | 45.60459 | 78.79895 | 33091 ft | 475 kts | 19° |
| 2026-04-27 15:40 | 45.66425 | 78.83935 | 33091 ft | 474 kts | 19° |
| 2026-04-27 15:40 | 45.72405 | 78.87993 | 33095 ft | 474 kts | 19° |
| 2026-04-27 15:41 | 45.78335 | 78.92033 | 33093 ft | 474 kts | 19° |
| 2026-04-27 15:41 | 45.84320 | 78.96097 | 33093 ft | 474 kts | 19° |
| 2026-04-27 15:42 | 45.90285 | 79.00161 | 33093 ft | 474 kts | 19° |
| 2026-04-27 15:42 | 45.96216 | 79.04239 | 33096 ft | 474 kts | 19° |
| 2026-04-27 15:43 | 46.02177 | 79.08347 | 33094 ft | 474 kts | 19° |
| 2026-04-27 15:43 | 46.08142 | 79.12456 | 33097 ft | 474 kts | 19° |
| 2026-04-27 15:44 | 46.14064 | 79.16543 | 33104 ft | 475 kts | 19° |
| 2026-04-27 15:44 | 46.20031 | 79.20665 | 33104 ft | 475 kts | 19° |
| 2026-04-27 15:45 | 46.26004 | 79.24800 | 33111 ft | 475 kts | 19° |
| 2026-04-27 15:45 | 46.31927 | 79.28920 | 33106 ft | 475 kts | 19° |
| 2026-04-27 15:46 | 46.37892 | 79.33081 | 33111 ft | 475 kts | 19° |
| 2026-04-27 15:46 | 46.43858 | 79.37249 | 33118 ft | 475 kts | 19° |
| 2026-04-27 15:47 | 46.49824 | 79.41428 | 33121 ft | 476 kts | 19° |
| 2026-04-27 15:47 | 46.55757 | 79.45588 | 33126 ft | 476 kts | 19° |
| 2026-04-27 15:48 | 46.61735 | 79.49794 | 33129 ft | 476 kts | 19° |
| 2026-04-27 15:49 | 46.70704 | 79.56130 | 33122 ft | 477 kts | 19° |
| 2026-04-27 15:49 | 46.76650 | 79.60344 | 33134 ft | 477 kts | 19° |
| 2026-04-27 15:50 | 46.82621 | 79.64590 | 33136 ft | 477 kts | 19° |
| 2026-04-27 15:50 | 46.88572 | 79.68826 | 33145 ft | 477 kts | 19° |
| 2026-04-27 15:51 | 46.94561 | 79.73087 | 33139 ft | 477 kts | 19° |
| 2026-04-27 15:51 | 47.00537 | 79.77352 | 33148 ft | 478 kts | 19° |
| 2026-04-27 15:52 | 47.06515 | 79.81636 | 33146 ft | 478 kts | 20° |
| 2026-04-27 15:52 | 47.12453 | 79.85910 | 33151 ft | 477 kts | 20° |
| 2026-04-27 15:53 | 47.18425 | 79.90219 | 33152 ft | 477 kts | 20° |
| 2026-04-27 15:53 | 47.24365 | 79.94507 | 33155 ft | 477 kts | 20° |
| 2026-04-27 15:54 | 47.30328 | 79.98824 | 33158 ft | 478 kts | 20° |
| 2026-04-27 15:54 | 47.36294 | 80.03162 | 33165 ft | 477 kts | 20° |
| 2026-04-27 15:55 | 47.42232 | 80.07482 | 33172 ft | 477 kts | 20° |
| 2026-04-27 15:55 | 47.48193 | 80.11829 | 33177 ft | 477 kts | 20° |
| 2026-04-27 15:56 | 47.54159 | 80.16188 | 33187 ft | 478 kts | 20° |
| 2026-04-27 15:56 | 47.60091 | 80.20545 | 33195 ft | 478 kts | 20° |
| 2026-04-27 15:57 | 47.66058 | 80.24935 | 33206 ft | 478 kts | 20° |
| 2026-04-27 15:57 | 47.72017 | 80.29321 | 33218 ft | 478 kts | 20° |
| 2026-04-27 15:58 | 47.77988 | 80.33727 | 33217 ft | 478 kts | 21° |
| 2026-04-27 15:58 | 47.83908 | 80.38120 | 33220 ft | 478 kts | 21° |
| 2026-04-27 15:59 | 47.89916 | 80.42385 | 33232 ft | 473 kts | 14° |
| 2026-04-27 15:59 | 47.96227 | 80.44448 | 33235 ft | 456 kts | 356° |
| 2026-04-27 16:00 | 48.02450 | 80.44176 | 33233 ft | 449 kts | 349° |
| 2026-04-27 16:00 | 48.08704 | 80.43641 | 33236 ft | 449 kts | 349° |
| 2026-04-27 16:01 | 48.14922 | 80.43123 | 33243 ft | 450 kts | 349° |
| 2026-04-27 16:01 | 48.21181 | 80.42582 | 33245 ft | 450 kts | 349° |
| 2026-04-27 16:02 | 48.27449 | 80.42034 | 33246 ft | 450 kts | 349° |
| 2026-04-27 16:02 | 48.33717 | 80.41494 | 33250 ft | 451 kts | 349° |
| 2026-04-27 16:03 | 48.39945 | 80.40950 | 33256 ft | 451 kts | 349° |
| 2026-04-27 16:03 | 48.46209 | 80.40411 | 33259 ft | 451 kts | 349° |
| 2026-04-27 16:04 | 48.52465 | 80.39880 | 33258 ft | 450 kts | 349° |
| 2026-04-27 16:04 | 48.58733 | 80.39342 | 33255 ft | 450 kts | 349° |
| 2026-04-27 16:05 | 48.64991 | 80.38793 | 33263 ft | 450 kts | 349° |
| 2026-04-27 16:05 | 48.71212 | 80.38240 | 33261 ft | 450 kts | 350° |
| 2026-04-27 16:05 | 48.74355 | 80.37965 | 32969 ft | 451 kts | 350° |
| 2026-04-27 16:06 | 48.77487 | 80.37694 | 32385 ft | 449 kts | 350° |
| 2026-04-27 16:06 | 48.80600 | 80.37424 | 31879 ft | 446 kts | 350° |
| 2026-04-27 16:06 | 48.83698 | 80.37152 | 31363 ft | 444 kts | 350° |
| 2026-04-27 16:06 | 48.86780 | 80.36885 | 30852 ft | 442 kts | 350° |
| 2026-04-27 16:07 | 48.89812 | 80.36624 | 30348 ft | 440 kts | 350° |
| 2026-04-27 16:07 | 48.92872 | 80.36354 | 29801 ft | 438 kts | 350° |
| 2026-04-27 16:07 | 48.95903 | 80.36083 | 29314 ft | 434 kts | 350° |
| 2026-04-27 16:07 | 48.97896 | 80.35905 | 28988 ft | 432 kts | 350° |
| 2026-04-27 16:08 | 49.00884 | 80.35640 | 28517 ft | 428 kts | 351° |
| 2026-04-27 16:08 | 49.03850 | 80.35380 | 28050 ft | 424 kts | 351° |
| 2026-04-27 16:08 | 49.06783 | 80.35121 | 27596 ft | 421 kts | 350° |
| 2026-04-27 16:08 | 49.09699 | 80.34857 | 27149 ft | 418 kts | 350° |
| 2026-04-27 16:09 | 49.12599 | 80.34592 | 26717 ft | 415 kts | 351° |
| 2026-04-27 16:09 | 49.18349 | 80.34075 | 25844 ft | 411 kts | 351° |
| 2026-04-27 16:09 | 49.21171 | 80.33825 | 25407 ft | 410 kts | 351° |
| 2026-04-27 16:10 | 49.26855 | 80.33325 | 24516 ft | 407 kts | 351° |
| 2026-04-27 16:10 | 49.32501 | 80.32819 | 23554 ft | 405 kts | 351° |
| 2026-04-27 16:11 | 49.35316 | 80.32563 | 23072 ft | 402 kts | 351° |
| 2026-04-27 16:11 | 49.40844 | 80.32066 | 22136 ft | 397 kts | 351° |
| 2026-04-27 16:12 | 49.46340 | 80.31568 | 21171 ft | 392 kts | 351° |
| 2026-04-27 16:12 | 49.49054 | 80.31325 | 20694 ft | 390 kts | 351° |
| 2026-04-27 16:12 | 49.54420 | 80.30842 | 19743 ft | 385 kts | 351° |
| 2026-04-27 16:13 | 49.57089 | 80.30598 | 19264 ft | 383 kts | 351° |
| 2026-04-27 16:13 | 49.62392 | 80.30144 | 18279 ft | 380 kts | 355° |
| 2026-04-27 16:13 | 49.65030 | 80.30561 | 17802 ft | 383 kts | 7° |
| 2026-04-27 16:14 | 49.70211 | 80.32245 | 16843 ft | 377 kts | 8° |
| 2026-04-27 16:14 | 49.75296 | 80.33906 | 15904 ft | 366 kts | 8° |
| 2026-04-27 16:15 | 49.80067 | 80.35472 | 15009 ft | 340 kts | 8° |
| 2026-04-27 16:15 | 49.84569 | 80.36941 | 14165 ft | 320 kts | 8° |
| 2026-04-27 16:16 | 49.88886 | 80.38337 | 13318 ft | 318 kts | 8° |
| 2026-04-27 16:16 | 49.93229 | 80.39738 | 12504 ft | 319 kts | 8° |
| 2026-04-27 16:17 | 49.97576 | 80.41163 | 11687 ft | 319 kts | 9° |
| 2026-04-27 16:17 | 50.01639 | 80.42497 | 10913 ft | 319 kts | 9° |
| 2026-04-27 16:18 | 50.06000 | 80.43925 | 10044 ft | 316 kts | 9° |
| 2026-04-27 16:18 | 50.10089 | 80.45281 | 9267 ft | 291 kts | 9° |
| 2026-04-27 16:19 | 50.12039 | 80.45923 | 8690 ft | 287 kts | 9° |
| 2026-04-27 16:19 | 50.13982 | 80.46560 | 8131 ft | 284 kts | 10° |
| 2026-04-27 16:20 | 50.19666 | 80.48423 | 6526 ft | 272 kts | 11° |
| 2026-04-27 16:20 | 50.21483 | 80.49020 | 6001 ft | 268 kts | 11° |
| 2026-04-27 16:20 | 50.25112 | 80.50222 | 5007 ft | 270 kts | 11° |
| 2026-04-27 16:21 | 50.26907 | 80.50823 | 4866 ft | 253 kts | 11° |
| 2026-04-27 16:21 | 50.31443 | 80.52338 | 4668 ft | 192 kts | 10° |
| 2026-04-27 16:22 | 50.32688 | 80.52753 | 4570 ft | 174 kts | 10° |
| 2026-04-27 16:22 | 50.34868 | 80.53336 | 4449 ft | 146 kts | 353° |
| 2026-04-27 16:22 | 50.35817 | 80.52887 | 4374 ft | 142 kts | 329° |
| 2026-04-27 16:23 | 50.36548 | 80.51873 | 4286 ft | 142 kts | 306° |
| 2026-04-27 16:23 | 50.36949 | 80.48951 | 3826 ft | 142 kts | 266° |
| 2026-04-27 16:23 | 50.36840 | 80.47412 | 3629 ft | 142 kts | 266° |
| 2026-04-27 16:24 | 50.36736 | 80.45882 | 3441 ft | 141 kts | 266° |
| 2026-04-27 16:24 | 50.36527 | 80.42838 | 3063 ft | 141 kts | 266° |
| 2026-04-27 16:25 | 50.36317 | 80.39779 | 2688 ft | 141 kts | 268° |
| 2026-04-27 16:25 | 50.36106 | 80.36720 | 2305 ft | 141 kts | 268° |
| 2026-04-27 16:26 | 50.35899 | 80.33733 | 1937 ft | 140 kts | 268° |
| 2026-04-27 16:26 | 50.35691 | 80.30717 | 1541 ft | 140 kts | 268° |
| 2026-04-27 16:27 | 50.35472 | 80.27681 | 1089 ft | 139 kts | 268° |
| 2026-04-27 16:27 | 50.35192 | 80.23504 | 755 ft | 64 kts | 261° |
| 2026-04-27 16:28 | 50.35148 | 80.22991 | 754 ft | 32 kts | 263° |
| 2026-04-27 16:28 | 50.35108 | 80.22399 | 754 ft | 27 kts | 263° |
| 2026-04-27 16:29 | 50.34908 | 80.21963 | 756 ft | 18 kts | 194° |
| 2026-04-27 16:30 | 50.34691 | 80.21880 | 755 ft | 5 kts | 194° |
| 2026-04-27 16:30 | 50.34609 | 80.21920 | 755 ft | 8 kts | 167° |
| 2026-04-27 16:31 | 50.34609 | 80.21792 | 755 ft | 1 kts | 355° |
| 2026-04-27 16:31 | 50.34626 | 80.21789 | 757 ft | 0 kts | 354° |